createdAt,value
2019-01-27T00:05:00.194Z,0.10
2019-01-27T00:08:24.423Z,0.07
2019-01-27T00:11:48.387Z,0.11
2019-01-27T00:19:02.384Z,0.42
2019-01-27T00:22:26.339Z,0.47
2019-01-27T00:25:50.401Z,0.44
2019-01-27T00:29:14.359Z,0.22
2019-01-27T00:32:38.321Z,0.15
2019-01-27T00:36:02.604Z,0.22
2019-01-27T00:39:26.565Z,0.28
2019-01-27T00:42:50.874Z,0.11
2019-01-27T00:46:33.880Z,0.12
2019-01-27T00:49:50.778Z,0.37
2019-01-27T00:53:14.741Z,0.39
2019-01-27T00:56:38.746Z,0.23
2019-01-27T01:00:02.815Z,0.16
2019-01-27T01:03:27.055Z,0.15
2019-01-27T01:06:51.110Z,-0.09
2019-01-27T01:10:34.401Z,-0.22
2019-01-27T01:13:58.618Z,-0.21
2019-01-27T01:17:22.850Z,-0.12
2019-01-27T01:20:47.244Z,0.01
2019-01-27T01:24:11.373Z,0.17
2019-01-27T01:27:35.341Z,0.11
2019-01-27T01:30:59.562Z,0.14
2019-01-27T01:34:23.518Z,0.17
2019-01-27T01:37:47.772Z,0.23
2019-01-27T01:40:52.660Z,0.22
2019-01-27T01:44:16.667Z,0.30
2019-01-27T01:47:40.633Z,0.32
2019-01-27T01:50:57.625Z,0.39
2019-01-27T01:54:21.579Z,0.27
2019-01-27T01:58:04.662Z,0.27
2019-01-27T02:04:59.801Z,0.41
2019-01-27T02:08:24.021Z,0.28
2019-01-27T02:11:47.991Z,0.30
2019-01-27T02:15:33.086Z,0.20
2019-01-27T02:18:57.049Z,0.21
2019-01-27T02:22:21.023Z,0.33
2019-01-27T02:25:44.985Z,0.24
2019-01-27T02:29:08.964Z,0.41
2019-01-27T02:39:54.487Z,0.19
2019-01-27T02:43:37.498Z,0.17
2019-01-27T02:47:01.992Z,0.20
2019-01-27T02:50:22.743Z,0.22
2019-01-27T02:53:46.720Z,0.17
2019-01-27T03:04:30.563Z,0.08
2019-01-27T03:07:54.537Z,0.08
2019-01-27T03:11:18.836Z,-0.01
2019-01-27T03:14:42.813Z,-0.04
2019-01-27T03:21:56.703Z,0.03
2019-01-27T03:25:20.976Z,-0.09
2019-01-27T03:28:45.024Z,-0.11
2019-01-27T03:32:09.016Z,-0.15
2019-01-27T03:35:32.978Z,-0.17
2019-01-27T03:38:56.965Z,-0.18
2019-01-27T03:49:46.715Z,-0.02
2019-01-27T03:53:10.696Z,-0.01
2019-01-27T03:56:34.697Z,-0.17
2019-01-27T03:59:58.706Z,-0.21
2019-01-27T04:03:22.684Z,-0.28
2019-01-27T04:06:46.932Z,-0.33
2019-01-27T04:10:30.336Z,-0.32
2019-01-27T04:13:34.949Z,-0.33
2019-01-27T04:16:59.030Z,-0.34
2019-01-27T04:24:13.451Z,-0.36
2019-01-27T04:27:37.890Z,-0.23
2019-01-27T04:31:01.901Z,-0.18
2019-01-27T04:34:26.070Z,-0.16
2019-01-27T04:37:50.282Z,-0.17
2019-01-27T04:41:14.256Z,-0.22
2019-01-27T04:44:38.492Z,-0.23
2019-01-27T04:52:04.753Z,-0.34
2019-01-27T04:55:28.737Z,-0.34
2019-01-27T04:58:52.706Z,-0.36
2019-01-27T07:44:30.520Z,0.74
2019-01-27T07:47:52.031Z,0.75
2019-01-27T07:51:35.282Z,0.83
2019-01-27T07:55:21.302Z,1.00
2019-01-27T07:59:04.531Z,1.07
2019-01-27T08:02:47.522Z,1.08
2019-01-27T08:06:30.783Z,1.15
2019-01-27T08:13:48.795Z,1.34
2019-01-27T08:17:31.804Z,1.41
2019-01-27T08:21:14.797Z,1.48
2019-01-27T08:28:33.838Z,1.50
2019-01-27T08:32:17.503Z,1.58
2019-01-27T08:36:00.511Z,1.71
2019-01-27T08:39:43.757Z,1.92
2019-01-27T08:50:15.935Z,2.99
2019-01-27T08:57:22.824Z,3.67
2019-01-27T09:04:36.549Z,4.33
2019-01-27T09:11:54.645Z,5.01
2019-01-27T09:15:37.711Z,5.25
2019-01-27T09:26:40.381Z,5.94
2019-01-27T09:30:44.439Z,6.29
2019-01-27T09:34:27.504Z,6.44
2019-01-27T09:38:10.757Z,6.58
2019-01-27T09:41:53.960Z,6.64
2019-01-27T09:45:36.984Z,6.64
2019-01-27T09:48:56.209Z,6.55
2019-01-27T09:52:39.285Z,6.66
2019-01-27T10:00:07.213Z,6.67
2019-01-27T10:07:21.341Z,7.32
2019-01-27T10:11:04.356Z,7.39
2019-01-27T10:14:47.616Z,7.52
2019-01-27T10:22:05.541Z,7.25
2019-01-27T10:25:29.304Z,7.26
2019-01-27T10:29:12.535Z,7.41
2019-01-27T10:32:55.593Z,7.39
2019-01-27T10:36:38.667Z,7.14
2019-01-27T10:40:21.911Z,7.02
2019-01-27T10:44:05.000Z,7.22
2019-01-27T10:51:25.797Z,7.90
2019-01-27T10:56:26.236Z,8.05
2019-01-27T11:00:09.269Z,8.04
2019-01-27T14:47:42.568Z,6.64
2019-01-27T14:50:50.590Z,6.54
2019-01-27T14:53:58.444Z,6.42
2019-01-27T14:57:06.116Z,6.40
2019-01-27T15:00:24.162Z,6.44
2019-01-27T15:03:32.410Z,6.34
2019-01-27T15:06:40.293Z,6.28
2019-01-27T15:09:47.953Z,6.21
2019-01-27T15:12:56.006Z,5.99
2019-01-27T15:16:03.616Z,5.88
2019-01-27T15:19:11.242Z,5.84
2019-01-27T15:22:19.091Z,5.69
2019-01-27T15:25:26.701Z,5.63
2019-01-27T15:28:35.149Z,5.52
2019-01-27T15:31:42.850Z,5.38
2019-01-27T15:34:50.717Z,5.37
2019-01-27T15:37:58.482Z,5.40
2019-01-27T15:41:06.073Z,5.20
2019-01-27T15:44:13.647Z,5.25
2019-01-27T15:47:21.406Z,5.26
2019-01-27T15:50:30.662Z,5.27
2019-01-27T15:53:38.202Z,5.07
2019-01-27T15:56:46.046Z,5.22
2019-01-27T15:59:53.648Z,5.15
2019-01-27T16:03:01.137Z,5.17
2019-01-27T16:06:08.803Z,5.14
2019-01-27T16:09:16.659Z,5.17
2019-01-27T16:12:24.558Z,5.08
2019-01-27T16:15:33.193Z,5.03
2019-01-27T16:18:41.691Z,5.08
2019-01-27T16:21:49.616Z,5.01
2019-01-27T16:24:57.605Z,4.94
2019-01-27T16:28:05.872Z,4.91
2019-01-27T16:35:26.142Z,4.98
2019-01-27T16:38:33.762Z,4.99
2019-01-27T16:48:19.101Z,5.00
2019-01-27T16:51:26.835Z,4.86
2019-01-27T16:54:34.549Z,4.93
2019-01-27T16:57:42.079Z,4.96
2019-01-27T17:00:49.717Z,4.79
2019-01-27T17:03:57.271Z,4.78
2019-01-27T17:07:04.992Z,4.76
2019-01-27T17:10:13.907Z,4.75
2019-01-27T17:13:21.822Z,4.83
2019-01-27T17:16:30.226Z,4.88
2019-01-27T17:19:38.899Z,4.78
2019-01-27T17:22:46.980Z,4.79
2019-01-27T17:25:54.874Z,4.73
2019-01-27T17:29:02.463Z,4.77
2019-01-27T17:32:10.358Z,4.84
2019-01-27T17:35:21.162Z,4.84
2019-01-27T17:38:28.747Z,4.82
2019-01-27T17:41:37.551Z,4.70
2019-01-27T17:44:44.995Z,4.54
2019-01-27T17:47:53.079Z,4.61
2019-01-27T17:51:01.491Z,4.60
2019-01-27T17:54:09.611Z,4.71
2019-01-27T17:57:36.854Z,4.64
2019-01-27T18:01:16.105Z,4.79
2019-01-27T18:04:42.248Z,4.67
2019-01-27T18:08:02.067Z,4.62
2019-01-27T18:11:21.656Z,4.78
2019-01-27T18:14:32.315Z,4.68
2019-01-27T18:17:39.819Z,5.00
2019-01-27T18:20:47.669Z,4.84
2019-01-27T18:23:55.419Z,4.75
2019-01-27T18:27:02.954Z,4.61
2019-01-27T18:30:16.267Z,4.49
2019-01-27T18:33:23.710Z,4.41
2019-01-27T18:36:31.369Z,4.40
2019-01-27T18:39:39.566Z,4.19
2019-01-27T18:42:50.296Z,4.12
2019-01-27T18:45:58.150Z,4.01
2019-01-27T18:49:05.852Z,3.82
2019-01-27T18:52:13.411Z,3.66
2019-01-27T18:55:28.292Z,3.55
2019-01-27T18:58:52.475Z,3.49
2019-01-27T19:02:26.412Z,3.39
2019-01-27T19:05:40.007Z,3.37
2019-01-27T19:09:10.217Z,3.33
2019-01-27T19:12:28.377Z,3.24
2019-01-27T19:16:01.799Z,3.25
2019-01-27T19:19:29.618Z,3.22
2019-01-27T19:22:50.461Z,3.22
2019-01-27T19:26:09.900Z,3.23
2019-01-27T19:29:46.302Z,3.37
2019-01-27T19:33:15.803Z,3.35
2019-01-27T19:36:46.813Z,3.32
2019-01-27T19:40:15.015Z,3.40
2019-01-27T19:43:48.208Z,3.42
2019-01-27T19:47:18.030Z,3.43
2019-01-27T19:50:44.346Z,3.63
2019-01-27T19:53:57.864Z,3.55
2019-01-27T19:57:13.053Z,3.43
2019-01-27T20:00:40.230Z,3.33
2019-01-27T20:03:57.415Z,3.45
2019-01-27T20:07:24.640Z,3.39
2019-01-27T20:11:07.335Z,3.34
2019-01-27T20:14:31.379Z,3.31
2019-01-27T20:17:49.786Z,3.35
2019-01-27T20:21:09.027Z,3.27
2019-01-27T20:24:31.924Z,3.32
2019-01-27T20:27:47.784Z,3.43
2019-01-27T20:31:17.694Z,3.36
2019-01-27T20:35:00.446Z,3.08
2019-01-27T20:38:34.120Z,3.08
2019-01-27T20:42:04.520Z,2.84
2019-01-27T20:45:44.300Z,2.93
2019-01-27T20:49:17.452Z,2.89
2019-01-27T20:52:32.105Z,3.24
2019-01-27T20:55:47.875Z,3.25
2019-01-27T20:59:12.778Z,3.28
2019-01-27T21:02:32.363Z,3.25
2019-01-27T21:06:02.661Z,3.25
2019-01-27T21:09:24.791Z,3.26
2019-01-27T21:12:51.020Z,3.32
2019-01-27T21:16:06.419Z,3.37
2019-01-27T21:19:22.912Z,3.29
2019-01-27T21:22:31.385Z,3.29
2019-01-27T21:25:39.244Z,3.27
2019-01-27T21:28:50.937Z,3.33
2019-01-27T21:31:58.580Z,3.24
2019-01-27T21:35:07.639Z,3.02
2019-01-27T21:38:15.670Z,2.88
2019-01-27T21:41:23.170Z,2.84
2019-01-27T21:44:32.343Z,2.61
2019-01-27T21:47:40.457Z,2.49
2019-01-27T21:50:48.414Z,2.44
2019-01-27T21:53:56.047Z,2.56
2019-01-27T21:57:03.783Z,2.65
2019-01-27T22:00:18.031Z,2.97
2019-01-27T22:03:25.388Z,2.97
2019-01-27T22:06:34.122Z,2.97
2019-01-27T22:09:41.784Z,3.05
2019-01-27T22:12:49.677Z,2.97
2019-01-27T22:15:57.070Z,3.20
2019-01-27T22:19:04.932Z,3.19
2019-01-27T22:22:12.598Z,3.26
2019-01-27T22:25:21.067Z,3.42
2019-01-27T22:28:29.129Z,3.39
2019-01-27T22:31:37.028Z,3.32
2019-01-27T22:34:44.757Z,3.36
2019-01-27T22:37:52.535Z,3.34
2019-01-27T22:41:00.266Z,3.36
2019-01-27T22:44:07.977Z,3.35
2019-01-27T22:47:15.457Z,3.28
2019-01-27T22:50:22.989Z,3.40
2019-01-27T22:53:30.358Z,3.45
2019-01-27T22:56:37.922Z,3.44
2019-01-27T22:59:45.432Z,3.43
2019-01-27T23:02:52.938Z,3.41
2019-01-27T23:06:00.928Z,3.60
2019-01-27T23:09:14.681Z,3.58
2019-01-27T23:12:22.155Z,3.58
2019-01-27T23:15:29.636Z,3.64
2019-01-27T23:18:37.527Z,3.56
2019-01-27T23:21:45.257Z,3.52
2019-01-27T23:24:52.674Z,3.49
2019-01-27T23:28:00.246Z,3.60
2019-01-27T23:31:07.634Z,3.54
2019-01-27T23:34:15.241Z,3.60
2019-01-27T23:37:22.680Z,3.55
2019-01-27T23:40:30.885Z,3.54
2019-01-27T23:43:38.437Z,3.54
2019-01-27T23:46:51.215Z,3.48
2019-01-27T23:49:58.658Z,3.48
2019-01-27T23:53:06.192Z,3.43
2019-01-27T23:56:13.562Z,3.40
2019-01-27T23:59:22.739Z,3.40
